createdAt,value
2017-09-11T00:00:41.897Z,79.60
2017-09-11T00:01:41.884Z,79.68
2017-09-11T00:02:41.891Z,79.13
2017-09-11T00:03:41.970Z,78.81
2017-09-11T00:04:41.930Z,78.70
2017-09-11T00:05:41.990Z,78.94
2017-09-11T00:06:42.057Z,78.65
2017-09-11T00:07:41.923Z,78.97
2017-09-11T00:08:41.975Z,78.75
2017-09-11T00:09:41.979Z,78.78
2017-09-11T00:10:41.928Z,78.91
2017-09-11T00:11:41.930Z,78.62
2017-09-11T00:12:41.886Z,78.97
2017-09-11T00:13:41.931Z,78.62
2017-09-11T00:14:41.982Z,78.99
2017-09-11T00:15:41.885Z,79.10
2017-09-11T00:16:42.003Z,78.83
2017-09-11T00:17:41.936Z,79.57
2017-09-11T00:18:41.981Z,79.57
2017-09-11T00:19:41.932Z,79.68
2017-09-11T00:20:41.944Z,79.49
2017-09-11T00:21:41.888Z,79.55
2017-09-11T00:22:41.918Z,79.75
2017-09-11T00:23:41.972Z,79.55
2017-09-11T00:24:42.004Z,79.55
2017-09-11T00:25:41.980Z,79.49
2017-09-11T00:26:41.983Z,80.05
2017-09-11T00:27:41.944Z,80.21
2017-09-11T00:28:41.984Z,79.91
2017-09-11T00:29:41.989Z,79.86
2017-09-11T00:31:41.941Z,79.91
2017-09-11T00:32:41.993Z,79.79
2017-09-11T00:33:41.978Z,79.94
2017-09-11T00:34:41.886Z,80.26
2017-09-11T00:35:41.993Z,80.39
2017-09-11T00:36:41.913Z,80.52
2017-09-11T00:37:42.093Z,80.65
2017-09-11T00:38:41.940Z,81.00
2017-09-11T00:39:41.955Z,80.76
2017-09-11T00:40:41.918Z,80.60
2017-09-11T00:41:41.956Z,80.65
2017-09-11T00:42:41.987Z,80.60
2017-09-11T00:43:41.997Z,80.52
2017-09-11T00:44:42.002Z,80.76
2017-09-11T00:45:41.930Z,80.73
2017-09-11T00:46:41.951Z,80.47
2017-09-11T00:47:41.951Z,80.52
2017-09-11T00:48:42.039Z,80.55
2017-09-11T00:49:42.005Z,81.02
2017-09-11T00:50:41.998Z,81.24
2017-09-11T00:51:41.955Z,81.32
2017-09-11T00:52:41.953Z,81.76
2017-09-11T00:53:41.955Z,81.82
2017-09-11T00:54:41.966Z,82.11
2017-09-11T00:55:41.955Z,82.24
2017-09-11T00:56:41.964Z,82.29
2017-09-11T00:57:42.008Z,82.45
2017-09-11T00:58:42.011Z,82.77
2017-09-11T00:59:41.972Z,83.33
2017-09-11T01:00:42.002Z,83.46
2017-09-11T01:01:41.962Z,83.51
2017-09-11T01:02:41.939Z,83.73
2017-09-11T01:03:41.975Z,83.86
2017-09-11T01:04:41.958Z,83.70
2017-09-11T01:05:42.011Z,83.89
2017-09-11T01:06:42.008Z,83.62
2017-09-11T01:07:42.014Z,83.78
2017-09-11T01:08:41.967Z,83.46
2017-09-11T01:09:42.008Z,83.30
2017-09-11T01:10:42.019Z,82.98
2017-09-11T01:11:41.992Z,83.04
2017-09-11T01:12:42.018Z,82.72
2017-09-11T01:13:41.907Z,82.72
2017-09-11T01:14:41.930Z,82.61
2017-09-11T01:15:41.961Z,82.75
2017-09-11T01:16:41.910Z,82.48
2017-09-11T01:17:41.943Z,82.32
2017-09-11T01:18:41.964Z,81.87
2017-09-11T01:19:41.907Z,81.74
2017-09-11T01:20:41.936Z,81.05
2017-09-11T01:21:41.908Z,80.73
2017-09-11T01:22:41.981Z,80.36
2017-09-11T01:23:42.021Z,80.81
2017-09-11T01:24:42.019Z,80.89
2017-09-11T01:25:41.981Z,80.21
2017-09-11T01:26:42.022Z,80.60
2017-09-11T01:27:41.984Z,80.76
2017-09-11T01:28:42.024Z,80.73
2017-09-11T01:29:41.979Z,80.94
2017-09-11T01:30:41.985Z,80.68
2017-09-11T01:31:41.983Z,80.76
2017-09-11T01:32:41.980Z,80.02
2017-09-11T01:33:42.030Z,80.10
2017-09-11T01:34:42.009Z,79.86
2017-09-11T01:35:41.963Z,79.63
2017-09-11T01:36:41.981Z,79.60
2017-09-11T01:37:41.933Z,79.55
2017-09-11T01:38:41.983Z,79.63
2017-09-11T01:39:41.963Z,79.41
2017-09-11T01:40:42.053Z,79.31
2017-09-11T01:41:41.986Z,79.41
2017-09-11T01:42:41.997Z,79.15
2017-09-11T01:43:41.986Z,79.10
2017-09-11T01:44:41.962Z,78.97
2017-09-11T01:45:41.997Z,79.10
2017-09-11T01:46:42.023Z,78.86
2017-09-11T01:47:42.022Z,78.91
2017-09-11T01:48:41.959Z,78.91
2017-09-11T01:49:42.023Z,78.97
2017-09-11T01:50:41.951Z,79.36
2017-09-11T01:51:41.984Z,79.49
2017-09-11T01:52:41.995Z,79.28
2017-09-11T01:53:41.960Z,79.60
2017-09-11T01:54:41.986Z,79.60
2017-09-11T01:55:41.929Z,79.79
2017-09-11T01:56:41.929Z,79.79
2017-09-11T01:57:42.009Z,79.55
2017-09-11T01:58:41.990Z,79.81
2017-09-11T01:59:41.991Z,79.94
2017-09-11T02:00:41.957Z,80.23
2017-09-11T02:01:41.956Z,79.89
2017-09-11T02:02:41.960Z,80.23
2017-09-11T02:03:41.932Z,79.91
2017-09-11T02:04:42.045Z,79.81
2017-09-11T02:05:42.044Z,79.63
2017-09-11T02:06:42.054Z,79.68
2017-09-11T02:07:42.047Z,79.83
2017-09-11T02:08:42.069Z,79.39
2017-09-11T02:09:42.069Z,79.17
2017-09-11T02:10:42.051Z,79.02
2017-09-11T02:11:42.008Z,79.05
2017-09-11T02:12:42.049Z,79.23
2017-09-11T02:13:42.007Z,78.86
2017-09-11T02:14:42.043Z,79.13
2017-09-11T02:15:41.994Z,79.28
2017-09-11T02:16:41.977Z,79.13
2017-09-11T02:17:41.983Z,78.73
2017-09-11T02:18:42.042Z,79.05
2017-09-11T02:19:41.974Z,79.05
2017-09-11T02:20:41.999Z,78.78
2017-09-11T02:21:42.005Z,78.97
2017-09-11T02:22:41.956Z,79.25
2017-09-11T02:23:41.951Z,79.17
2017-09-11T02:24:41.970Z,79.60
2017-09-11T02:25:41.921Z,79.75
2017-09-11T02:26:41.934Z,80.05
2017-09-11T02:27:41.927Z,80.26
2017-09-11T02:28:41.937Z,79.91
2017-09-11T02:29:41.999Z,79.97
2017-09-11T02:30:41.933Z,79.71
2017-09-11T02:31:41.977Z,80.15
2017-09-11T02:32:41.954Z,80.02
2017-09-11T02:33:41.933Z,79.91
2017-09-11T02:34:41.956Z,80.02
2017-09-11T02:35:41.979Z,80.02
2017-09-11T02:36:41.989Z,79.75
2017-09-11T02:37:41.953Z,79.65
2017-09-11T02:38:41.986Z,79.47
2017-09-11T02:39:41.985Z,79.63
2017-09-11T02:40:41.956Z,79.02
2017-09-11T02:41:42.017Z,79.17
2017-09-11T02:42:41.958Z,79.10
2017-09-11T02:43:41.984Z,79.23
2017-09-11T02:44:41.903Z,79.13
2017-09-11T02:45:41.898Z,79.10
2017-09-11T02:46:41.952Z,79.55
2017-09-11T02:47:41.903Z,79.02
2017-09-11T02:48:41.976Z,78.94
2017-09-11T02:49:41.979Z,79.31
2017-09-11T02:50:41.947Z,79.60
2017-09-11T02:51:41.964Z,80.41
2017-09-11T02:52:41.963Z,80.21
2017-09-11T02:53:41.981Z,80.41
2017-09-11T02:54:42.030Z,80.73
2017-09-11T02:55:42.009Z,80.31
2017-09-11T02:56:42.092Z,80.49
2017-09-11T02:57:42.026Z,80.41
2017-09-11T02:58:41.994Z,80.29
2017-09-11T02:59:42.030Z,81.05
2017-09-11T03:00:42.046Z,80.18
2017-09-11T03:01:42.095Z,80.10
2017-09-11T03:02:42.042Z,80.26
2017-09-11T03:03:42.040Z,80.10
2017-09-11T03:04:42.032Z,80.26
2017-09-11T03:05:42.048Z,80.21
2017-09-11T03:06:42.081Z,80.33
2017-09-11T03:07:42.036Z,80.29
2017-09-11T03:08:42.036Z,80.23
2017-09-11T03:09:42.038Z,80.15
2017-09-11T03:10:42.088Z,79.75
2017-09-11T03:11:42.041Z,79.83
2017-09-11T03:12:42.040Z,79.63
2017-09-11T03:13:42.026Z,79.49
2017-09-11T03:14:42.008Z,79.23
2017-09-11T03:15:42.079Z,79.36
2017-09-11T03:16:42.077Z,79.52
2017-09-11T03:17:42.083Z,79.83
2017-09-11T03:18:42.076Z,80.13
2017-09-11T03:19:42.046Z,79.75
2017-09-11T03:20:42.083Z,79.17
2017-09-11T03:21:42.080Z,79.81
2017-09-11T03:22:42.079Z,79.47
2017-09-11T03:23:41.985Z,79.55
2017-09-11T03:24:41.983Z,78.83
2017-09-11T03:25:42.115Z,78.78
2017-09-11T03:26:42.014Z,79.31
2017-09-11T03:27:42.015Z,78.73
2017-09-11T03:28:41.985Z,78.91
2017-09-11T03:29:41.986Z,78.44
2017-09-11T03:30:42.017Z,78.75
2017-09-11T03:31:42.019Z,78.73
2017-09-11T03:32:42.018Z,78.99
2017-09-11T03:33:41.989Z,78.57
2017-09-11T03:34:42.088Z,78.97
2017-09-11T03:35:42.014Z,78.81
2017-09-11T03:36:42.066Z,79.13
2017-09-11T03:37:42.029Z,79.02
2017-09-11T03:38:42.022Z,78.91
2017-09-11T03:39:42.026Z,78.86
2017-09-11T03:40:42.072Z,78.86
2017-09-11T03:41:42.021Z,79.05
2017-09-11T03:42:42.038Z,79.07
2017-09-11T03:43:42.091Z,78.91
2017-09-11T03:44:42.046Z,78.99
2017-09-11T03:45:42.005Z,78.97
2017-09-11T03:46:41.975Z,79.02
2017-09-11T03:47:42.148Z,79.25
2017-09-11T03:48:42.074Z,79.05
2017-09-11T03:49:42.014Z,78.75
2017-09-11T03:50:42.064Z,78.62
2017-09-11T03:51:41.974Z,78.59
2017-09-11T03:52:42.005Z,78.89
2017-09-11T03:53:42.010Z,78.78
2017-09-11T03:54:42.003Z,79.05
2017-09-11T03:55:42.065Z,79.31
2017-09-11T03:56:42.127Z,79.49
2017-09-11T03:57:42.064Z,79.33
2017-09-11T03:58:42.027Z,79.49
2017-09-11T03:59:42.063Z,78.91
2017-09-11T04:00:42.066Z,79.36
2017-09-11T04:01:42.031Z,79.23
2017-09-11T04:02:42.030Z,79.33
2017-09-11T04:03:42.065Z,79.47
2017-09-11T04:04:42.071Z,79.17
2017-09-11T04:05:42.021Z,78.99
2017-09-11T04:06:42.074Z,79.23
2017-09-11T04:07:42.074Z,79.10
2017-09-11T04:08:42.074Z,79.15
2017-09-11T04:09:42.122Z,78.81
2017-09-11T04:10:42.177Z,78.65
2017-09-11T04:11:42.073Z,78.81
2017-09-11T04:12:42.077Z,78.75
2017-09-11T04:13:42.123Z,78.70
2017-09-11T04:14:42.039Z,78.47
2017-09-11T04:15:42.043Z,78.23
2017-09-11T04:17:42.025Z,78.05
2017-09-11T04:18:42.073Z,77.54
2017-09-11T04:19:42.091Z,77.57
2017-09-11T04:20:42.092Z,77.86
2017-09-11T04:21:42.088Z,77.86
2017-09-11T04:22:42.045Z,78.20
2017-09-11T04:23:42.026Z,77.89
2017-09-11T04:24:42.129Z,78.41
2017-09-11T04:25:42.128Z,77.91
2017-09-11T04:26:42.081Z,78.12
2017-09-11T04:27:42.127Z,77.99
2017-09-11T04:28:42.084Z,78.01
2017-09-11T04:29:42.137Z,77.83
2017-09-11T04:30:42.134Z,77.83
2017-09-11T04:31:42.091Z,78.05
2017-09-11T04:32:42.094Z,77.83
2017-09-11T04:33:42.127Z,77.67
2017-09-11T04:34:42.092Z,77.83
2017-09-11T04:35:42.127Z,78.09
2017-09-11T04:36:42.123Z,78.12
2017-09-11T04:37:42.104Z,78.17
2017-09-11T04:38:42.039Z,77.67
2017-09-11T04:39:42.132Z,78.05
2017-09-11T04:40:42.160Z,78.07
2017-09-11T04:41:42.036Z,78.28
2017-09-11T04:42:42.065Z,78.17
2017-09-11T04:43:42.107Z,78.28
2017-09-11T04:44:42.132Z,78.36
2017-09-11T04:45:42.122Z,78.15
2017-09-11T04:47:42.122Z,77.94
2017-09-11T04:48:42.069Z,77.97
2017-09-11T04:49:42.118Z,77.83
2017-09-11T04:50:42.041Z,77.57
2017-09-11T04:51:42.071Z,77.51
2017-09-11T04:52:42.099Z,77.51
2017-09-11T04:53:42.143Z,77.62
2017-09-11T04:54:42.056Z,77.89
2017-09-11T04:55:42.053Z,78.33
2017-09-11T04:56:42.052Z,78.15
2017-09-11T04:57:42.131Z,77.97
2017-09-11T04:58:41.981Z,77.91
2017-09-11T04:59:42.062Z,77.94
2017-09-11T05:00:42.040Z,77.97
2017-09-11T05:01:42.042Z,78.07
2017-09-11T05:02:42.028Z,78.12
2017-09-11T05:03:42.055Z,78.36
2017-09-11T05:04:42.073Z,77.94
2017-09-11T05:05:42.060Z,77.86
2017-09-11T05:06:42.065Z,77.91
2017-09-11T05:07:42.154Z,78.28
2017-09-11T05:08:42.103Z,78.12
2017-09-11T05:09:42.067Z,78.78
2017-09-11T05:10:42.115Z,78.54
2017-09-11T05:11:42.159Z,78.33
2017-09-11T05:12:42.161Z,78.65
2017-09-11T05:13:42.110Z,78.62
2017-09-11T05:14:42.077Z,78.94
2017-09-11T05:15:42.110Z,78.67
2017-09-11T05:16:42.084Z,78.81
2017-09-11T05:17:42.079Z,78.83
2017-09-11T05:18:42.079Z,78.99
2017-09-11T05:19:42.124Z,79.05
2017-09-11T05:20:42.046Z,79.02
2017-09-11T05:21:42.118Z,79.23
2017-09-11T05:22:42.078Z,78.97
2017-09-11T05:23:42.115Z,79.36
2017-09-11T05:24:42.118Z,79.33
2017-09-11T05:25:42.085Z,79.41
2017-09-11T05:26:42.161Z,79.49
2017-09-11T05:27:42.083Z,79.55
2017-09-11T05:28:42.161Z,79.75
2017-09-11T05:29:42.147Z,79.79
2017-09-11T05:30:42.067Z,80.39
2017-09-11T05:31:42.123Z,80.63
2017-09-11T05:32:42.098Z,80.07
2017-09-11T05:33:42.131Z,80.18
2017-09-11T05:34:42.083Z,80.18
2017-09-11T05:35:42.070Z,80.29
2017-09-11T05:36:42.094Z,80.47
2017-09-11T05:37:42.083Z,80.49
2017-09-11T05:38:42.083Z,81.05
2017-09-11T05:39:42.092Z,80.94
2017-09-11T05:40:42.070Z,80.76
2017-09-11T05:41:42.015Z,80.84
2017-09-11T05:42:42.095Z,80.89
2017-09-11T05:43:42.090Z,80.87
2017-09-11T05:44:42.170Z,80.84
2017-09-11T05:45:42.135Z,80.92
2017-09-11T05:46:42.079Z,80.92
2017-09-11T05:47:42.131Z,81.18
2017-09-11T05:48:42.108Z,81.34
2017-09-11T05:49:42.135Z,81.32
2017-09-11T05:50:42.090Z,81.26
2017-09-11T05:51:42.113Z,81.50
2017-09-11T05:52:42.176Z,81.24
2017-09-11T05:53:42.100Z,81.68
2017-09-11T05:54:42.187Z,81.58
2017-09-11T05:55:42.143Z,81.60
2017-09-11T05:56:42.199Z,81.95
2017-09-11T05:57:42.132Z,82.14
2017-09-11T05:58:42.132Z,81.98
2017-09-11T05:59:42.190Z,81.90
2017-09-11T06:00:42.161Z,81.76
2017-09-11T06:01:42.135Z,81.90
2017-09-11T06:02:42.138Z,81.84
2017-09-11T06:03:42.142Z,81.90
2017-09-11T06:04:42.188Z,81.95
2017-09-11T06:05:42.081Z,81.95
2017-09-11T06:06:42.149Z,82.06
2017-09-11T06:07:42.171Z,82.32
2017-09-11T06:08:42.144Z,81.84
2017-09-11T06:09:42.174Z,81.95
2017-09-11T06:10:42.147Z,81.82
2017-09-11T06:11:42.190Z,81.90
2017-09-11T06:12:42.149Z,81.63
2017-09-11T06:13:42.145Z,81.58
2017-09-11T06:14:42.191Z,81.52
2017-09-11T06:15:42.190Z,81.68
2017-09-11T06:16:42.157Z,81.82
2017-09-11T06:17:42.110Z,81.56
2017-09-11T06:18:42.146Z,81.82
2017-09-11T06:19:42.110Z,81.60
2017-09-11T06:20:42.205Z,81.98
2017-09-11T06:21:42.164Z,81.66
2017-09-11T06:22:42.117Z,81.71
2017-09-11T06:23:42.103Z,81.95
2017-09-11T06:24:42.123Z,81.92
2017-09-11T06:25:42.114Z,81.76
2017-09-11T06:26:42.113Z,82.08
2017-09-11T06:27:42.087Z,82.03
2017-09-11T06:28:42.115Z,81.87
2017-09-11T06:29:42.117Z,81.84
2017-09-11T06:30:42.088Z,82.00
2017-09-11T06:31:42.092Z,81.74
2017-09-11T06:32:42.118Z,82.00
2017-09-11T06:33:42.127Z,82.16
2017-09-11T06:34:42.204Z,82.19
2017-09-11T06:35:42.210Z,82.11
2017-09-11T06:36:42.158Z,82.35
2017-09-11T06:37:42.209Z,82.03
2017-09-11T06:38:42.140Z,81.92
2017-09-11T06:39:42.228Z,81.84
2017-09-11T06:40:42.203Z,82.48
2017-09-11T06:41:42.214Z,82.75
2017-09-11T06:42:42.207Z,82.40
2017-09-11T06:43:42.164Z,82.56
2017-09-11T06:44:42.124Z,82.82
2017-09-11T06:45:42.125Z,82.53
2017-09-11T06:46:42.098Z,82.56
2017-09-11T06:47:42.102Z,82.56
2017-09-11T06:48:42.125Z,82.80
2017-09-11T06:49:42.099Z,83.12
2017-09-11T06:50:42.159Z,82.90
2017-09-11T06:51:42.161Z,82.88
2017-09-11T06:52:42.163Z,83.22
2017-09-11T06:53:42.106Z,83.25
2017-09-11T06:54:42.106Z,83.14
2017-09-11T06:55:42.132Z,83.09
2017-09-11T06:56:42.105Z,82.98
2017-09-11T06:57:42.133Z,83.54
2017-09-11T06:58:42.170Z,83.33
2017-09-11T06:59:42.135Z,83.33
2017-09-11T07:00:42.169Z,83.38
2017-09-11T07:01:42.141Z,83.25
2017-09-11T07:02:42.140Z,83.46
2017-09-11T07:03:42.245Z,84.12
2017-09-11T07:04:42.179Z,83.89
2017-09-11T07:05:42.170Z,84.07
2017-09-11T07:06:42.138Z,83.97
2017-09-11T07:07:42.143Z,83.78
2017-09-11T07:08:42.140Z,84.07
2017-09-11T07:09:42.115Z,84.36
2017-09-11T07:10:42.178Z,84.66
2017-09-11T07:11:42.138Z,84.36
2017-09-11T07:12:42.117Z,84.79
2017-09-11T07:13:42.180Z,85.03
2017-09-11T07:14:42.108Z,84.79
2017-09-11T07:15:42.104Z,84.66
2017-09-11T07:16:42.137Z,84.50
2017-09-11T07:17:42.120Z,84.36
2017-09-11T07:18:42.122Z,84.47
2017-09-11T07:19:42.144Z,84.84
2017-09-11T07:20:42.125Z,84.71
2017-09-11T07:21:42.137Z,84.76
2017-09-11T07:22:42.102Z,85.03
2017-09-11T07:23:42.123Z,84.74
2017-09-11T07:24:42.153Z,85.13
2017-09-11T07:25:42.158Z,84.95
2017-09-11T07:26:42.273Z,84.97
2017-09-11T07:27:42.187Z,84.92
2017-09-11T07:28:42.099Z,84.44
2017-09-11T07:29:42.151Z,84.71
2017-09-11T07:30:42.155Z,84.84
2017-09-11T07:31:42.141Z,85.08
2017-09-11T07:32:42.138Z,85.21
2017-09-11T07:33:42.105Z,85.16
2017-09-11T07:34:42.234Z,85.08
2017-09-11T07:35:42.243Z,85.27
2017-09-11T07:36:42.195Z,85.11
2017-09-11T07:37:42.202Z,84.52
2017-09-11T07:38:42.146Z,85.00
2017-09-11T07:39:42.200Z,84.71
2017-09-11T07:40:42.180Z,84.92
2017-09-11T07:41:42.185Z,84.31
2017-09-11T07:42:42.176Z,84.60
2017-09-11T07:43:42.222Z,84.23
2017-09-11T07:44:42.161Z,84.58
2017-09-11T07:45:42.141Z,83.62
2017-09-11T07:46:42.140Z,83.78
2017-09-11T07:47:42.205Z,83.49
2017-09-11T07:48:42.180Z,83.78
2017-09-11T07:49:42.146Z,83.38
2017-09-11T07:50:42.200Z,83.12
2017-09-11T07:51:42.167Z,83.06
2017-09-11T07:52:42.229Z,82.90
2017-09-11T07:53:42.243Z,83.04
2017-09-11T07:54:42.169Z,82.85
2017-09-11T07:55:42.194Z,82.48
2017-09-11T07:56:42.202Z,81.98
2017-09-11T07:57:42.172Z,82.03
2017-09-11T07:58:42.204Z,82.64
2017-09-11T07:59:42.168Z,82.32
2017-09-11T08:00:42.206Z,82.59
2017-09-11T08:01:42.171Z,82.45
2017-09-11T08:02:42.207Z,82.11
2017-09-11T08:03:42.201Z,82.08
2017-09-11T08:04:42.209Z,81.26
2017-09-11T08:05:42.196Z,81.37
2017-09-11T08:06:42.216Z,81.45
2017-09-11T08:07:42.208Z,81.02
2017-09-11T08:08:42.196Z,81.29
2017-09-11T08:09:42.287Z,81.82
2017-09-11T08:10:42.219Z,81.58
2017-09-11T08:11:42.283Z,81.24
2017-09-11T08:12:42.224Z,81.10
2017-09-11T08:13:42.200Z,81.08
2017-09-11T08:14:42.222Z,81.71
2017-09-11T08:15:42.186Z,81.74
2017-09-11T08:16:42.259Z,82.51
2017-09-11T08:18:42.266Z,83.81
2017-09-11T08:19:42.223Z,84.89
2017-09-11T08:20:42.268Z,84.66
2017-09-11T08:21:42.220Z,85.21
2017-09-11T08:22:42.266Z,85.83
2017-09-11T08:23:42.231Z,84.89
2017-09-11T08:24:42.248Z,85.88
2017-09-11T08:25:42.162Z,85.27
2017-09-11T08:26:42.160Z,86.15
2017-09-11T08:27:42.188Z,85.80
2017-09-11T08:28:42.226Z,85.19
2017-09-11T08:29:42.290Z,86.97
2017-09-11T08:30:42.161Z,86.76
2017-09-11T08:31:42.186Z,87.26
2017-09-11T08:32:42.187Z,86.71
2017-09-11T08:33:42.228Z,88.50
2017-09-11T08:34:42.223Z,88.81
2017-09-11T08:35:42.168Z,88.39
2017-09-11T08:36:42.172Z,87.96
2017-09-11T08:37:42.195Z,87.51
2017-09-11T08:38:42.238Z,88.20
2017-09-11T08:39:42.210Z,87.74
2017-09-11T08:40:42.235Z,88.04
2017-09-11T08:41:42.178Z,86.71
2017-09-11T08:42:42.259Z,86.44
2017-09-11T08:43:42.176Z,87.02
2017-09-11T08:44:42.196Z,87.85
2017-09-11T08:45:42.439Z,87.34
2017-09-11T08:46:42.181Z,86.52
2017-09-11T08:47:42.232Z,86.30
2017-09-11T08:48:42.242Z,86.28
2017-09-11T08:49:42.201Z,86.01
2017-09-11T08:50:42.310Z,85.24
2017-09-11T08:51:42.285Z,84.47
2017-09-11T08:52:42.241Z,83.83
2017-09-11T08:53:42.244Z,84.63
2017-09-11T08:54:42.215Z,84.42
2017-09-11T08:55:42.293Z,84.60
2017-09-11T08:56:42.286Z,84.31
2017-09-11T08:57:42.238Z,84.87
2017-09-11T08:58:42.193Z,84.23
2017-09-11T08:59:42.192Z,84.09
2017-09-11T09:00:42.193Z,84.50
2017-09-11T09:01:42.206Z,84.92
2017-09-11T09:02:42.189Z,85.69
2017-09-11T09:03:42.245Z,85.56
2017-09-11T09:04:42.297Z,86.73
2017-09-11T09:05:42.194Z,87.90
2017-09-11T09:06:42.316Z,88.89
2017-09-11T09:07:42.253Z,89.11
2017-09-11T09:08:42.214Z,90.61
2017-09-11T09:09:42.296Z,90.93
2017-09-11T09:10:42.293Z,91.76
2017-09-11T09:11:42.248Z,90.98
2017-09-11T09:12:42.255Z,92.27
2017-09-11T09:13:42.254Z,92.38
2017-09-11T09:14:42.264Z,93.62
2017-09-11T09:15:42.252Z,93.56
2017-09-11T09:16:42.319Z,94.83
2017-09-11T09:17:42.204Z,96.13
2017-09-11T09:18:42.283Z,96.09
2017-09-11T09:19:42.260Z,96.20
2017-09-11T09:20:42.259Z,97.61
2017-09-11T09:21:42.224Z,97.88
2017-09-11T09:22:42.258Z,97.26
2017-09-11T09:23:42.237Z,95.77
2017-09-11T09:24:42.257Z,95.20
2017-09-11T09:25:42.270Z,96.85
2017-09-11T09:26:42.266Z,96.80
2017-09-11T09:27:42.294Z,96.61
2017-09-11T09:28:42.234Z,95.98
2017-09-11T09:29:42.240Z,95.75
2017-09-11T09:30:42.236Z,96.47
2017-09-11T09:31:42.246Z,96.55
2017-09-11T09:32:42.239Z,96.93
2017-09-11T09:33:42.236Z,97.66
2017-09-11T09:34:42.243Z,97.07
2017-09-11T09:35:42.257Z,98.02
2017-09-11T09:36:42.228Z,98.80
2017-09-11T09:37:42.202Z,97.26
2017-09-11T09:38:42.232Z,96.91
2017-09-11T09:39:42.266Z,96.23
2017-09-11T09:40:42.272Z,96.66
2017-09-11T09:41:42.231Z,97.34
2017-09-11T09:42:42.205Z,98.12
2017-09-11T09:43:42.264Z,98.64
2017-09-11T09:44:42.267Z,97.04
2017-09-11T09:45:42.283Z,96.47
2017-09-11T09:46:42.271Z,96.47
2017-09-11T09:47:42.278Z,96.09
2017-09-11T09:48:42.320Z,96.53
2017-09-11T09:49:42.235Z,98.45
2017-09-11T09:50:42.287Z,97.83
2017-09-11T09:51:42.282Z,95.34
2017-09-11T09:52:42.275Z,95.50
2017-09-11T09:53:42.321Z,96.55
2017-09-11T09:54:42.226Z,97.34
2017-09-11T09:55:42.287Z,96.83
2017-09-11T09:56:42.240Z,93.56
2017-09-11T09:57:42.230Z,90.61
2017-09-11T09:58:42.218Z,91.57
2017-09-11T09:59:42.223Z,91.20
2017-09-11T10:00:42.248Z,93.96
2017-09-11T10:01:42.235Z,89.67
2017-09-11T10:02:42.225Z,91.92
2017-09-11T10:03:42.202Z,92.08
2017-09-11T10:04:42.198Z,93.54
2017-09-11T10:05:42.279Z,90.20
2017-09-11T10:06:42.282Z,91.60
2017-09-11T10:07:42.332Z,86.41
2017-09-11T10:08:42.286Z,89.70
2017-09-11T10:09:42.221Z,89.94
2017-09-11T10:10:42.280Z,88.09
2017-09-11T10:11:42.222Z,89.72
2017-09-11T10:12:42.286Z,91.55
2017-09-11T10:13:42.254Z,92.65
2017-09-11T10:14:42.225Z,86.87
2017-09-11T10:15:42.293Z,86.91
2017-09-11T10:16:42.267Z,86.17
2017-09-11T10:17:42.293Z,87.93
2017-09-11T10:18:42.342Z,87.56
2017-09-11T10:19:42.300Z,90.85
2017-09-11T10:20:42.295Z,87.00
2017-09-11T10:21:42.270Z,88.65
2017-09-11T10:22:42.324Z,90.39
2017-09-11T10:23:42.302Z,88.89
2017-09-11T10:24:42.242Z,88.87
2017-09-11T10:25:42.303Z,90.77
2017-09-11T10:26:42.303Z,90.13
2017-09-11T10:27:42.258Z,88.36
2017-09-11T10:28:42.345Z,87.00
2017-09-11T10:29:42.279Z,87.40
2017-09-11T10:30:42.281Z,89.62
2017-09-11T10:31:42.281Z,90.53
2017-09-11T10:32:42.348Z,90.13
2017-09-11T10:33:42.351Z,92.62
2017-09-11T10:34:42.332Z,90.18
2017-09-11T10:35:42.343Z,84.58
2017-09-11T10:36:42.324Z,84.84
2017-09-11T10:37:42.262Z,86.01
2017-09-11T10:38:42.305Z,85.24
2017-09-11T10:39:42.251Z,87.67
2017-09-11T10:40:42.280Z,87.29
2017-09-11T10:41:42.286Z,83.59
2017-09-11T10:42:42.287Z,85.56
2017-09-11T10:43:42.362Z,85.80
2017-09-11T10:44:42.346Z,85.38
2017-09-11T10:45:42.354Z,86.36
2017-09-11T10:46:42.310Z,84.55
2017-09-11T10:47:42.355Z,85.38
2017-09-11T10:48:42.314Z,80.97
2017-09-11T10:49:42.318Z,82.80
2017-09-11T10:50:42.312Z,84.95
2017-09-11T10:51:42.322Z,81.95
2017-09-11T10:52:42.287Z,82.21
2017-09-11T10:53:42.368Z,81.71
2017-09-11T10:54:42.321Z,84.02
2017-09-11T10:55:42.316Z,81.66
2017-09-11T10:56:42.309Z,83.22
2017-09-11T10:57:42.331Z,84.28
2017-09-11T10:58:42.291Z,83.49
2017-09-11T10:59:42.366Z,83.46
2017-09-11T11:00:42.323Z,82.98
2017-09-11T11:01:42.278Z,84.87
2017-09-11T11:02:42.300Z,83.65
2017-09-11T11:03:42.318Z,85.08
2017-09-11T11:04:42.347Z,86.54
2017-09-11T11:05:42.372Z,87.74
2017-09-11T11:06:42.330Z,85.66
2017-09-11T11:07:42.318Z,88.07
2017-09-11T11:08:42.323Z,86.49
2017-09-11T11:09:42.310Z,82.32
2017-09-11T11:11:42.369Z,81.18
2017-09-11T11:12:42.279Z,79.65
2017-09-11T11:13:42.330Z,79.91
2017-09-11T11:14:42.368Z,79.73
2017-09-11T11:15:42.320Z,79.97
2017-09-11T11:16:42.263Z,78.39
2017-09-11T11:17:42.320Z,76.60
2017-09-11T11:18:42.325Z,78.41
2017-09-11T11:19:42.263Z,80.81
2017-09-11T11:20:42.289Z,83.22
2017-09-11T11:21:42.321Z,83.40
2017-09-11T11:22:42.264Z,83.78
2017-09-11T11:23:42.320Z,82.88
2017-09-11T11:24:42.290Z,83.25
2017-09-11T11:25:42.286Z,84.05
2017-09-11T11:26:42.309Z,84.55
2017-09-11T11:27:42.271Z,83.89
2017-09-11T11:28:42.298Z,82.80
2017-09-11T11:29:42.340Z,84.12
2017-09-11T11:30:42.372Z,83.33
2017-09-11T11:31:42.328Z,82.45
2017-09-11T11:32:42.275Z,82.64
2017-09-11T11:33:42.336Z,82.90
2017-09-11T11:34:42.305Z,82.75
2017-09-11T11:35:42.370Z,82.45
2017-09-11T11:36:42.313Z,83.14
2017-09-11T11:37:42.279Z,79.33
2017-09-11T11:38:42.310Z,74.55
2017-09-11T11:39:42.279Z,74.47
2017-09-11T11:40:42.307Z,75.78
2017-09-11T11:41:42.319Z,78.23
2017-09-11T11:42:42.282Z,75.73
2017-09-11T11:43:42.301Z,72.80
2017-09-11T11:44:42.369Z,72.12
2017-09-11T11:45:42.319Z,72.33
2017-09-11T11:46:42.291Z,68.40
2017-09-11T11:47:42.290Z,69.26
2017-09-11T11:48:42.397Z,66.43
2017-09-11T11:49:42.343Z,67.88
2017-09-11T11:50:42.358Z,66.69
2017-09-11T11:51:42.315Z,65.29
2017-09-11T11:52:42.370Z,66.71
2017-09-11T11:53:42.357Z,64.67
2017-09-11T11:54:42.359Z,64.26
2017-09-11T11:55:42.403Z,65.68
2017-09-11T11:56:42.560Z,64.70
2017-09-11T11:57:42.421Z,64.08
2017-09-11T11:58:42.390Z,65.01
2017-09-11T11:59:42.321Z,64.72
2017-09-11T12:00:42.310Z,64.08
2017-09-11T12:01:42.301Z,64.10
2017-09-11T12:02:42.423Z,65.06
2017-09-11T12:03:42.336Z,61.48
2017-09-11T12:04:42.404Z,63.85
2017-09-11T12:05:42.386Z,62.35
2017-09-11T12:06:42.360Z,64.05
2017-09-11T12:08:42.325Z,59.61
2017-09-11T12:09:42.366Z,61.46
2017-09-11T12:10:42.318Z,61.86
2017-09-11T12:11:42.401Z,62.56
2017-09-11T12:12:42.382Z,60.43
2017-09-11T12:13:42.393Z,63.07
2017-09-11T12:14:42.306Z,63.18
2017-09-11T12:15:42.325Z,66.04
2017-09-11T12:16:42.345Z,63.07
2017-09-11T12:17:42.415Z,63.23
2017-09-11T12:18:42.359Z,62.14
2017-09-11T12:19:42.310Z,62.46
2017-09-11T12:20:42.362Z,64.10
2017-09-11T12:21:42.390Z,64.46
2017-09-11T12:22:42.325Z,64.42
2017-09-11T12:23:42.316Z,62.71
2017-09-11T12:24:42.376Z,64.59
2017-09-11T12:25:42.307Z,62.63
2017-09-11T12:26:42.342Z,63.59
2017-09-11T12:27:42.370Z,66.58
2017-09-11T12:28:42.372Z,62.69
2017-09-11T12:29:42.311Z,63.33
2017-09-11T12:30:42.311Z,62.48
2017-09-11T12:31:42.404Z,63.18
2017-09-11T12:32:42.413Z,61.27
2017-09-11T12:33:42.374Z,61.25
2017-09-11T12:34:42.316Z,61.71
2017-09-11T12:35:42.424Z,62.56
2017-09-11T12:36:42.375Z,61.97
2017-09-11T12:37:42.372Z,63.30
2017-09-11T12:38:42.336Z,58.02
2017-09-11T12:39:42.419Z,59.53
2017-09-11T12:40:42.425Z,59.92
2017-09-11T12:41:42.448Z,59.04
2017-09-11T12:42:42.321Z,60.27
2017-09-11T12:43:42.437Z,60.01
2017-09-11T12:44:42.356Z,60.55
2017-09-11T12:45:42.421Z,60.35
2017-09-11T12:46:42.343Z,61.04
2017-09-11T12:47:42.424Z,60.45
2017-09-11T12:48:42.344Z,60.81
2017-09-11T12:49:42.452Z,62.66
2017-09-11T12:50:42.382Z,60.45
2017-09-11T12:51:42.394Z,62.48
2017-09-11T12:52:42.437Z,62.10
2017-09-11T12:53:42.385Z,63.13
2017-09-11T12:54:42.347Z,67.36
2017-09-11T12:55:42.318Z,67.00
2017-09-11T12:56:42.315Z,65.58
2017-09-11T12:57:42.383Z,69.12
2017-09-11T12:58:42.324Z,69.72